sensor_id;sensor_type;location;lat;lon;timestamp;pressure;altitude;pressure_sealevel;temperature
77599;BMP280;66758;52.078;5.070;2023-03-01T00:01:27;103347.66;;;0.66
77599;BMP280;66758;52.078;5.070;2023-03-01T00:03:54;103328.56;;;0.68
77599;BMP280;66758;52.078;5.070;2023-03-01T00:06:20;103346.78;;;0.73
77599;BMP280;66758;52.078;5.070;2023-03-01T00:08:48;103349.31;;;0.68
77599;BMP280;66758;52.078;5.070;2023-03-01T00:11:17;103340.66;;;0.59
77599;BMP280;66758;52.078;5.070;2023-03-01T00:13:43;103352.94;;;0.55
77599;BMP280;66758;52.078;5.070;2023-03-01T00:16:16;103353.25;;;0.72
77599;BMP280;66758;52.078;5.070;2023-03-01T00:18:41;103338.34;;;0.62
77599;BMP280;66758;52.078;5.070;2023-03-01T00:21:07;103343.53;;;0.64
77599;BMP280;66758;52.078;5.070;2023-03-01T00:23:36;103348.09;;;0.63
77599;BMP280;66758;52.078;5.070;2023-03-01T00:26:06;103338.00;;;0.52
77599;BMP280;66758;52.078;5.070;2023-03-01T00:28:32;103344.88;;;0.48
77599;BMP280;66758;52.078;5.070;2023-03-01T00:31:06;103332.78;;;0.57
77599;BMP280;66758;52.078;5.070;2023-03-01T00:33:32;103332.22;;;0.49
77599;BMP280;66758;52.078;5.070;2023-03-01T00:35:59;103327.88;;;0.48
77599;BMP280;66758;52.078;5.070;2023-03-01T00:38:25;103333.88;;;0.50
77599;BMP280;66758;52.078;5.070;2023-03-01T00:40:50;103331.22;;;0.43
77599;BMP280;66758;52.078;5.070;2023-03-01T00:43:16;103328.34;;;0.38
77599;BMP280;66758;52.078;5.070;2023-03-01T00:45:42;103321.34;;;0.30
77599;BMP280;66758;52.078;5.070;2023-03-01T00:48:07;103327.47;;;0.44
77599;BMP280;66758;52.078;5.070;2023-03-01T00:50:34;103330.22;;;0.38
77599;BMP280;66758;52.078;5.070;2023-03-01T00:53:00;103326.34;;;0.27
77599;BMP280;66758;52.078;5.070;2023-03-01T00:55:26;103317.91;;;0.17
77599;BMP280;66758;52.078;5.070;2023-03-01T00:57:52;103321.78;;;0.27
77599;BMP280;66758;52.078;5.070;2023-03-01T01:00:18;103329.59;;;0.36
77599;BMP280;66758;52.078;5.070;2023-03-01T01:02:44;103323.22;;;0.30
77599;BMP280;66758;52.078;5.070;2023-03-01T01:05:09;103314.31;;;0.29
77599;BMP280;66758;52.078;5.070;2023-03-01T01:07:35;103324.38;;;0.41
77599;BMP280;66758;52.078;5.070;2023-03-01T01:10:01;103319.59;;;0.43
77599;BMP280;66758;52.078;5.070;2023-03-01T01:12:26;103324.81;;;0.38
77599;BMP280;66758;52.078;5.070;2023-03-01T01:14:52;103331.09;;;0.31
77599;BMP280;66758;52.078;5.070;2023-03-01T01:17:19;103317.97;;;0.35
77599;BMP280;66758;52.078;5.070;2023-03-01T01:19:44;103316.41;;;0.27
77599;BMP280;66758;52.078;5.070;2023-03-01T01:22:10;103309.75;;;0.30
77599;BMP280;66758;52.078;5.070;2023-03-01T01:24:35;103310.56;;;0.30
77599;BMP280;66758;52.078;5.070;2023-03-01T01:27:02;103297.53;;;0.27
77599;BMP280;66758;52.078;5.070;2023-03-01T01:29:28;103291.16;;;0.15
77599;BMP280;66758;52.078;5.070;2023-03-01T01:31:53;103291.16;;;0.15
77599;BMP280;66758;52.078;5.070;2023-03-01T01:34:21;103295.84;;;-0.05
77599;BMP280;66758;52.078;5.070;2023-03-01T01:36:53;103278.53;;;-0.29
77599;BMP280;66758;52.078;5.070;2023-03-01T01:39:20;103278.34;;;-0.27
77599;BMP280;66758;52.078;5.070;2023-03-01T01:41:46;103281.03;;;-0.27
77599;BMP280;66758;52.078;5.070;2023-03-01T01:44:24;103282.28;;;-0.43
77599;BMP280;66758;52.078;5.070;2023-03-01T01:47:16;103282.66;;;-0.33
77599;BMP280;66758;52.078;5.070;2023-03-01T01:49:56;103286.44;;;-0.41
77599;BMP280;66758;52.078;5.070;2023-03-01T01:52:24;103276.94;;;-0.50
77599;BMP280;66758;52.078;5.070;2023-03-01T01:55:06;103279.38;;;-0.42
77599;BMP280;66758;52.078;5.070;2023-03-01T01:57:41;103279.34;;;-0.22
77599;BMP280;66758;52.078;5.070;2023-03-01T02:00:14;103277.25;;;-0.20
77599;BMP280;66758;52.078;5.070;2023-03-01T02:02:43;103280.41;;;-0.29
77599;BMP280;66758;52.078;5.070;2023-03-01T02:05:15;103269.63;;;-0.29
77599;BMP280;66758;52.078;5.070;2023-03-01T02:07:44;103275.84;;;-0.36
77599;BMP280;66758;52.078;5.070;2023-03-01T02:10:10;103261.56;;;-0.36
77599;BMP280;66758;52.078;5.070;2023-03-01T02:12:36;103267.75;;;-0.22
77599;BMP280;66758;52.078;5.070;2023-03-01T02:15:04;103254.69;;;-0.25
77599;BMP280;66758;52.078;5.070;2023-03-01T02:17:30;103264.84;;;-0.21
77599;BMP280;66758;52.078;5.070;2023-03-01T02:22:26;103261.94;;;-0.33
77599;BMP280;66758;52.078;5.070;2023-03-01T02:27:19;103256.50;;;-0.13
77599;BMP280;66758;52.078;5.070;2023-03-01T02:29:50;103257.97;;;-0.17
77599;BMP280;66758;52.078;5.070;2023-03-01T02:32:16;103267.13;;;-0.24
77599;BMP280;66758;52.078;5.070;2023-03-01T02:34:47;103257.41;;;-0.39
77599;BMP280;66758;52.078;5.070;2023-03-01T02:37:14;103266.50;;;-0.20
77599;BMP280;66758;52.078;5.070;2023-03-01T02:39:51;103261.13;;;-0.26
77599;BMP280;66758;52.078;5.070;2023-03-01T02:42:22;103258.66;;;-0.28
77599;BMP280;66758;52.078;5.070;2023-03-01T02:44:49;103250.75;;;-0.23
77599;BMP280;66758;52.078;5.070;2023-03-01T02:47:15;103248.91;;;-0.29
77599;BMP280;66758;52.078;5.070;2023-03-01T02:49:40;103241.44;;;-0.27
77599;BMP280;66758;52.078;5.070;2023-03-01T02:52:28;103225.09;;;-0.39
77599;BMP280;66758;52.078;5.070;2023-03-01T02:55:06;103237.09;;;-0.35
77599;BMP280;66758;52.078;5.070;2023-03-01T02:57:35;103236.28;;;-0.35
77599;BMP280;66758;52.078;5.070;2023-03-01T03:00:08;103237.94;;;-0.27
77599;BMP280;66758;52.078;5.070;2023-03-01T03:02:35;103237.94;;;-0.27
77599;BMP280;66758;52.078;5.070;2023-03-01T03:05:16;103230.28;;;-0.30
77599;BMP280;66758;52.078;5.070;2023-03-01T03:07:45;103223.00;;;-0.37
77599;BMP280;66758;52.078;5.070;2023-03-01T03:10:23;103223.88;;;-0.43
77599;BMP280;66758;52.078;5.070;2023-03-01T03:12:51;103226.78;;;-0.44
77599;BMP280;66758;52.078;5.070;2023-03-01T03:15:17;103230.28;;;-0.44
77599;BMP280;66758;52.078;5.070;2023-03-01T03:17:43;103228.44;;;-0.50
77599;BMP280;66758;52.078;5.070;2023-03-01T03:20:10;103229.72;;;-0.59
77599;BMP280;66758;52.078;5.070;2023-03-01T03:22:38;103216.91;;;-0.63
77599;BMP280;66758;52.078;5.070;2023-03-01T03:25:06;103230.16;;;-0.62
77599;BMP280;66758;52.078;5.070;2023-03-01T03:27:37;103225.63;;;-0.68
77599;BMP280;66758;52.078;5.070;2023-03-01T03:30:04;103224.78;;;-0.62
77599;BMP280;66758;52.078;5.070;2023-03-01T03:32:39;103216.72;;;-0.69
77599;BMP280;66758;52.078;5.070;2023-03-01T03:35:06;103211.13;;;-0.67
77599;BMP280;66758;52.078;5.070;2023-03-01T03:37:41;103206.75;;;-0.61
77599;BMP280;66758;52.078;5.070;2023-03-01T03:40:26;103208.19;;;-0.59
77599;BMP280;66758;52.078;5.070;2023-03-01T03:42:52;103198.72;;;-0.75
77599;BMP280;66758;52.078;5.070;2023-03-01T03:45:18;103213.22;;;-0.76
77599;BMP280;66758;52.078;5.070;2023-03-01T03:47:44;103203.47;;;-0.70
77599;BMP280;66758;52.078;5.070;2023-03-01T03:50:12;103206.81;;;-0.81
77599;BMP280;66758;52.078;5.070;2023-03-01T03:52:38;103201.84;;;-0.84
77599;BMP280;66758;52.078;5.070;2023-03-01T03:55:05;103202.09;;;-0.92
77599;BMP280;66758;52.078;5.070;2023-03-01T03:57:42;103204.41;;;-1.16
77599;BMP280;66758;52.078;5.070;2023-03-01T04:00:11;103197.19;;;-1.28
77599;BMP280;66758;52.078;5.070;2023-03-01T04:02:41;103201.09;;;-1.24
77599;BMP280;66758;52.078;5.070;2023-03-01T04:05:08;103198.59;;;-1.06
77599;BMP280;66758;52.078;5.070;2023-03-01T04:07:37;103195.28;;;-1.02
77599;BMP280;66758;52.078;5.070;2023-03-01T04:10:09;103202.53;;;-1.22
77599;BMP280;66758;52.078;5.070;2023-03-01T04:12:35;103195.72;;;-1.24
77599;BMP280;66758;52.078;5.070;2023-03-01T04:15:05;103201.31;;;-1.19
77599;BMP280;66758;52.078;5.070;2023-03-01T04:17:42;103202.56;;;-1.28
77599;BMP280;66758;52.078;5.070;2023-03-01T04:20:12;103201.91;;;-1.17
77599;BMP280;66758;52.078;5.070;2023-03-01T04:22:39;103197.59;;;-1.25
77599;BMP280;66758;52.078;5.070;2023-03-01T04:25:06;103199.63;;;-1.53
77599;BMP280;66758;52.078;5.070;2023-03-01T04:27:36;103198.81;;;-1.34
77599;BMP280;66758;52.078;5.070;2023-03-01T04:30:03;103190.13;;;-1.36
77599;BMP280;66758;52.078;5.070;2023-03-01T04:32:28;103189.09;;;-1.35
77599;BMP280;66758;52.078;5.070;2023-03-01T04:34:54;103195.53;;;-1.30
77599;BMP280;66758;52.078;5.070;2023-03-01T04:37:20;103200.25;;;-1.05
77599;BMP280;66758;52.078;5.070;2023-03-01T04:39:45;103198.97;;;-0.96
77599;BMP280;66758;52.078;5.070;2023-03-01T04:42:12;103185.38;;;-1.14
77599;BMP280;66758;52.078;5.070;2023-03-01T04:44:38;103200.00;;;-0.90
77599;BMP280;66758;52.078;5.070;2023-03-01T04:47:05;103194.84;;;-0.99
77599;BMP280;66758;52.078;5.070;2023-03-01T04:49:30;103183.47;;;-1.07
77599;BMP280;66758;52.078;5.070;2023-03-01T04:51:56;103181.84;;;-1.15
77599;BMP280;66758;52.078;5.070;2023-03-01T04:54:34;103187.88;;;-1.33
77599;BMP280;66758;52.078;5.070;2023-03-01T04:57:01;103172.13;;;-1.42
77599;BMP280;66758;52.078;5.070;2023-03-01T04:59:27;103176.50;;;-1.28
77599;BMP280;66758;52.078;5.070;2023-03-01T05:01:56;103162.59;;;-1.38
77599;BMP280;66758;52.078;5.070;2023-03-01T05:04:23;103157.03;;;-1.56
77599;BMP280;66758;52.078;5.070;2023-03-01T05:06:49;103167.16;;;-1.45
77599;BMP280;66758;52.078;5.070;2023-03-01T05:09:14;103160.56;;;-1.49
77599;BMP280;66758;52.078;5.070;2023-03-01T05:11:40;103157.03;;;-1.56
77599;BMP280;66758;52.078;5.070;2023-03-01T05:14:06;103166.56;;;-1.67
77599;BMP280;66758;52.078;5.070;2023-03-01T05:16:33;103161.13;;;-2.00
77599;BMP280;66758;52.078;5.070;2023-03-01T05:18:59;103141.47;;;-2.20
77599;BMP280;66758;52.078;5.070;2023-03-01T05:21:25;103156.34;;;-2.11
77599;BMP280;66758;52.078;5.070;2023-03-01T05:23:51;103143.25;;;-2.34
77599;BMP280;66758;52.078;5.070;2023-03-01T05:26:18;103160.28;;;-2.07
77599;BMP280;66758;52.078;5.070;2023-03-01T05:28:45;103137.53;;;-2.18
77599;BMP280;66758;52.078;5.070;2023-03-01T05:31:10;103153.25;;;-2.08
77599;BMP280;66758;52.078;5.070;2023-03-01T05:33:37;103139.00;;;-2.02
77599;BMP280;66758;52.078;5.070;2023-03-01T05:36:03;103134.66;;;-2.10
77599;BMP280;66758;52.078;5.070;2023-03-01T05:38:29;103117.72;;;-2.10
77599;BMP280;66758;52.078;5.070;2023-03-01T05:40:55;103126.41;;;-2.08
77599;BMP280;66758;52.078;5.070;2023-03-01T05:43:21;103121.66;;;-2.06
77599;BMP280;66758;52.078;5.070;2023-03-01T05:45:46;103126.19;;;-2.13
77599;BMP280;66758;52.078;5.070;2023-03-01T05:48:13;103120.59;;;-2.18
77599;BMP280;66758;52.078;5.070;2023-03-01T05:50:43;103114.41;;;-2.12
77599;BMP280;66758;52.078;5.070;2023-03-01T05:53:10;103107.81;;;-2.03
77599;BMP280;66758;52.078;5.070;2023-03-01T05:55:36;103105.38;;;-1.85
77599;BMP280;66758;52.078;5.070;2023-03-01T05:58:05;103108.03;;;-1.65
77599;BMP280;66758;52.078;5.070;2023-03-01T06:00:32;103110.94;;;-1.53
77599;BMP280;66758;52.078;5.070;2023-03-01T06:02:58;103104.69;;;-1.41
77599;BMP280;66758;52.078;5.070;2023-03-01T06:05:24;103103.47;;;-1.32
77599;BMP280;66758;52.078;5.070;2023-03-01T06:07:50;103098.91;;;-1.31
77599;BMP280;66758;52.078;5.070;2023-03-01T06:10:18;103104.06;;;-1.16
77599;BMP280;66758;52.078;5.070;2023-03-01T06:12:44;103108.22;;;-1.27
77599;BMP280;66758;52.078;5.070;2023-03-01T06:15:12;103115.03;;;-1.24
77599;BMP280;66758;52.078;5.070;2023-03-01T06:17:39;103116.28;;;-1.27
77599;BMP280;66758;52.078;5.070;2023-03-01T06:20:09;103110.03;;;-1.14
77599;BMP280;66758;52.078;5.070;2023-03-01T06:22:35;103106.72;;;-1.10
77599;BMP280;66758;52.078;5.070;2023-03-01T06:25:01;103106.56;;;-1.28
77599;BMP280;66758;52.078;5.070;2023-03-01T06:27:26;103119.56;;;-1.18
77599;BMP280;66758;52.078;5.070;2023-03-01T06:29:53;103120.81;;;-1.14
77599;BMP280;66758;52.078;5.070;2023-03-01T06:32:19;103123.09;;;-1.24
77599;BMP280;66758;52.078;5.070;2023-03-01T06:34:44;103127.44;;;-1.17
77599;BMP280;66758;52.078;5.070;2023-03-01T06:37:10;103104.69;;;-1.27
77599;BMP280;66758;52.078;5.070;2023-03-01T06:39:37;103127.22;;;-1.15
77599;BMP280;66758;52.078;5.070;2023-03-01T06:42:03;103127.88;;;-1.53
77599;BMP280;66758;52.078;5.070;2023-03-01T06:44:29;103120.63;;;-1.26
77599;BMP280;66758;52.078;5.070;2023-03-01T06:46:54;103116.94;;;-1.58
77599;BMP280;66758;52.078;5.070;2023-03-01T06:49:20;103121.88;;;-1.62
77599;BMP280;66758;52.078;5.070;2023-03-01T06:51:46;103118.16;;;-1.54
77599;BMP280;66758;52.078;5.070;2023-03-01T06:54:12;103116.72;;;-1.30
77599;BMP280;66758;52.078;5.070;2023-03-01T06:56:38;103110.50;;;-1.24
77599;BMP280;66758;52.078;5.070;2023-03-01T06:59:03;103130.09;;;-1.04
77599;BMP280;66758;52.078;5.070;2023-03-01T07:01:29;103117.28;;;-1.15
77599;BMP280;66758;52.078;5.070;2023-03-01T07:03:55;103119.94;;;-1.02
77599;BMP280;66758;52.078;5.070;2023-03-01T07:06:21;103115.78;;;-0.98
77599;BMP280;66758;52.078;5.070;2023-03-01T07:08:47;103119.66;;;-0.80
77599;BMP280;66758;52.078;5.070;2023-03-01T07:11:13;103122.53;;;-0.75
77599;BMP280;66758;52.078;5.070;2023-03-01T07:13:39;103109.91;;;-0.75
77599;BMP280;66758;52.078;5.070;2023-03-01T07:16:05;103126.25;;;-0.76
77599;BMP280;66758;52.078;5.070;2023-03-01T07:18:31;103121.47;;;-0.68
77599;BMP280;66758;52.078;5.070;2023-03-01T07:20:56;103121.00;;;-0.58
77599;BMP280;66758;52.078;5.070;2023-03-01T07:23:22;103124.56;;;-0.71
77599;BMP280;66758;52.078;5.070;2023-03-01T07:25:52;103124.56;;;-0.71
77599;BMP280;66758;52.078;5.070;2023-03-01T07:28:18;103121.56;;;-0.49
77599;BMP280;66758;52.078;5.070;2023-03-01T07:30:43;103125.97;;;-0.17
77599;BMP280;66758;52.078;5.070;2023-03-01T07:33:09;103139.59;;;-0.12
77599;BMP280;66758;52.078;5.070;2023-03-01T07:35:35;103135.66;;;-0.09
77599;BMP280;66758;52.078;5.070;2023-03-01T07:38:01;103136.56;;;0.03
77599;BMP280;66758;52.078;5.070;2023-03-01T07:40:32;103141.41;;;0.19
77599;BMP280;66758;52.078;5.070;2023-03-01T07:43:01;103138.84;;;0.31
77599;BMP280;66758;52.078;5.070;2023-03-01T07:45:28;103139.50;;;0.45
77599;BMP280;66758;52.078;5.070;2023-03-01T07:47:54;103132.41;;;0.50
77599;BMP280;66758;52.078;5.070;2023-03-01T07:50:20;103120.81;;;0.68
77599;BMP280;66758;52.078;5.070;2023-03-01T07:52:47;103134.41;;;0.80
77599;BMP280;66758;52.078;5.070;2023-03-01T07:55:13;103135.81;;;0.82
77599;BMP280;66758;52.078;5.070;2023-03-01T07:57:39;103135.84;;;1.01
77599;BMP280;66758;52.078;5.070;2023-03-01T08:00:05;103130.56;;;1.06
77599;BMP280;66758;52.078;5.070;2023-03-01T08:02:31;103122.19;;;1.14
77599;BMP280;66758;52.078;5.070;2023-03-01T08:04:56;103144.47;;;1.39
77599;BMP280;66758;52.078;5.070;2023-03-01T08:07:22;103143.09;;;1.48
77599;BMP280;66758;52.078;5.070;2023-03-01T08:09:48;103130.31;;;1.55
77599;BMP280;66758;52.078;5.070;2023-03-01T08:12:13;103149.34;;;1.79
77599;BMP280;66758;52.078;5.070;2023-03-01T08:14:41;103140.75;;;1.82
77599;BMP280;66758;52.078;5.070;2023-03-01T08:17:07;103137.97;;;2.00
77599;BMP280;66758;52.078;5.070;2023-03-01T08:19:32;103128.69;;;2.08
77599;BMP280;66758;52.078;5.070;2023-03-01T08:22:01;103139.50;;;2.31
77599;BMP280;66758;52.078;5.070;2023-03-01T08:24:28;103116.09;;;2.37
77599;BMP280;66758;52.078;5.070;2023-03-01T08:26:55;103135.13;;;2.77
77599;BMP280;66758;52.078;5.070;2023-03-01T08:29:21;103126.47;;;2.63
77599;BMP280;66758;52.078;5.070;2023-03-01T08:31:46;103118.91;;;3.05
77599;BMP280;66758;52.078;5.070;2023-03-01T08:34:15;103121.88;;;3.32
77599;BMP280;66758;52.078;5.070;2023-03-01T08:36:44;103116.78;;;4.58
77599;BMP280;66758;52.078;5.070;2023-03-01T08:39:12;103119.03;;;5.68
77599;BMP280;66758;52.078;5.070;2023-03-01T08:41:39;103133.03;;;6.29
77599;BMP280;66758;52.078;5.070;2023-03-01T08:44:06;103129.25;;;5.93
77599;BMP280;66758;52.078;5.070;2023-03-01T08:46:35;103129.31;;;6.03
77599;BMP280;66758;52.078;5.070;2023-03-01T08:49:06;103119.56;;;6.55
77599;BMP280;66758;52.078;5.070;2023-03-01T08:51:32;103115.09;;;5.86
77599;BMP280;66758;52.078;5.070;2023-03-01T08:54:06;103116.19;;;5.58
77599;BMP280;66758;52.078;5.070;2023-03-01T08:56:32;103121.06;;;5.51
77599;BMP280;66758;52.078;5.070;2023-03-01T08:58:58;103121.50;;;6.12
77599;BMP280;66758;52.078;5.070;2023-03-01T09:01:24;103121.09;;;5.56
77599;BMP280;66758;52.078;5.070;2023-03-01T09:03:50;103103.03;;;5.40
77599;BMP280;66758;52.078;5.070;2023-03-01T09:06:15;103104.13;;;5.44
77599;BMP280;66758;52.078;5.070;2023-03-01T09:08:44;103099.38;;;4.76
77599;BMP280;66758;52.078;5.070;2023-03-01T09:11:11;103103.25;;;4.19
77599;BMP280;66758;52.078;5.070;2023-03-01T09:13:37;103105.59;;;3.77
77599;BMP280;66758;52.078;5.070;2023-03-01T09:16:05;103095.06;;;3.97
77599;BMP280;66758;52.078;5.070;2023-03-01T09:18:31;103092.19;;;4.04
77599;BMP280;66758;52.078;5.070;2023-03-01T09:21:09;103083.75;;;4.22
77599;BMP280;66758;52.078;5.070;2023-03-01T09:23:35;103084.34;;;4.68
77599;BMP280;66758;52.078;5.070;2023-03-01T09:26:02;103076.94;;;4.20
77599;BMP280;66758;52.078;5.070;2023-03-01T09:28:28;103069.94;;;4.24
77599;BMP280;66758;52.078;5.070;2023-03-01T09:30:57;103086.94;;;4.80
77599;BMP280;66758;52.078;5.070;2023-03-01T09:33:23;103069.59;;;5.07
77599;BMP280;66758;52.078;5.070;2023-03-01T09:35:49;103077.72;;;7.42
77599;BMP280;66758;52.078;5.070;2023-03-01T09:38:14;103071.41;;;5.34
77599;BMP280;66758;52.078;5.070;2023-03-01T09:40:43;103061.41;;;5.76
77599;BMP280;66758;52.078;5.070;2023-03-01T09:43:37;103068.94;;;6.74
77599;BMP280;66758;52.078;5.070;2023-03-01T09:46:09;103074.31;;;5.54
77599;BMP280;66758;52.078;5.070;2023-03-01T09:49:04;103071.81;;;8.19
77599;BMP280;66758;52.078;5.070;2023-03-01T09:51:35;103050.78;;;8.69
77599;BMP280;66758;52.078;5.070;2023-03-01T09:54:03;103071.94;;;8.48
77599;BMP280;66758;52.078;5.070;2023-03-01T09:56:33;103069.03;;;9.13
77599;BMP280;66758;52.078;5.070;2023-03-01T09:59:23;103071.63;;;7.90
77599;BMP280;66758;52.078;5.070;2023-03-01T10:07:17;103068.44;;;6.92
77599;BMP280;66758;52.078;5.070;2023-03-01T10:09:46;103070.41;;;8.22
77599;BMP280;66758;52.078;5.070;2023-03-01T10:12:16;103063.31;;;9.91
77599;BMP280;66758;52.078;5.070;2023-03-01T10:15:12;103074.69;;;9.21
77599;BMP280;66758;52.078;5.070;2023-03-01T10:17:46;103066.53;;;9.74
77599;BMP280;66758;52.078;5.070;2023-03-01T10:20:20;103064.81;;;6.56
77599;BMP280;66758;52.078;5.070;2023-03-01T10:22:48;103061.66;;;5.75
77599;BMP280;66758;52.078;5.070;2023-03-01T10:25:31;103058.47;;;6.40
77599;BMP280;66758;52.078;5.070;2023-03-01T10:30:49;103051.72;;;7.85
77599;BMP280;66758;52.078;5.070;2023-03-01T10:33:20;103045.50;;;9.40
77599;BMP280;66758;52.078;5.070;2023-03-01T10:35:46;103038.91;;;5.91
77599;BMP280;66758;52.078;5.070;2023-03-01T10:38:15;103045.53;;;6.93
77599;BMP280;66758;52.078;5.070;2023-03-01T10:41:05;103049.38;;;7.17
77599;BMP280;66758;52.078;5.070;2023-03-01T10:43:47;103043.28;;;5.92
77599;BMP280;66758;52.078;5.070;2023-03-01T10:46:34;103053.13;;;5.98
77599;BMP280;66758;52.078;5.070;2023-03-01T10:49:22;103044.88;;;5.83
77599;BMP280;66758;52.078;5.070;2023-03-01T10:51:50;103031.47;;;5.71
77599;BMP280;66758;52.078;5.070;2023-03-01T10:56:53;103031.75;;;8.00
77599;BMP280;66758;52.078;5.070;2023-03-01T10:59:24;103028.09;;;7.19
77599;BMP280;66758;52.078;5.070;2023-03-01T11:02:24;103017.59;;;6.25
77599;BMP280;66758;52.078;5.070;2023-03-01T11:07:56;103001.66;;;6.79
77599;BMP280;66758;52.078;5.070;2023-03-01T11:10:24;102992.63;;;7.35
77599;BMP280;66758;52.078;5.070;2023-03-01T11:12:51;102992.66;;;6.89
77599;BMP280;66758;52.078;5.070;2023-03-01T11:15:25;102990.59;;;8.35
77599;BMP280;66758;52.078;5.070;2023-03-01T11:17:51;102976.84;;;6.91
77599;BMP280;66758;52.078;5.070;2023-03-01T11:20:35;102987.69;;;6.40
77599;BMP280;66758;52.078;5.070;2023-03-01T11:23:09;102984.72;;;6.52
77599;BMP280;66758;52.078;5.070;2023-03-01T11:25:37;102967.03;;;6.75
77599;BMP280;66758;52.078;5.070;2023-03-01T11:28:06;102975.47;;;6.63
77599;BMP280;66758;52.078;5.070;2023-03-01T11:30:38;102972.50;;;7.00
77599;BMP280;66758;52.078;5.070;2023-03-01T11:33:44;102971.94;;;6.63
77599;BMP280;66758;52.078;5.070;2023-03-01T11:38:42;102972.91;;;7.73
77599;BMP280;66758;52.078;5.070;2023-03-01T11:41:20;102959.03;;;8.58
77599;BMP280;66758;52.078;5.070;2023-03-01T12:11:48;102938.44;;;8.37
77599;BMP280;66758;52.078;5.070;2023-03-01T12:22:35;102924.66;;;9.76
77599;BMP280;66758;52.078;5.070;2023-03-01T12:25:34;102931.31;;;6.97
77599;BMP280;66758;52.078;5.070;2023-03-01T12:28:40;102929.16;;;6.99
77599;BMP280;66758;52.078;5.070;2023-03-01T12:31:21;102920.94;;;7.24
77599;BMP280;66758;52.078;5.070;2023-03-01T12:34:03;102924.09;;;8.11
77599;BMP280;66758;52.078;5.070;2023-03-01T12:36:48;102915.47;;;7.24
77599;BMP280;66758;52.078;5.070;2023-03-01T12:39:29;102916.72;;;7.57
77599;BMP280;66758;52.078;5.070;2023-03-01T12:53:25;102909.50;;;7.12
77599;BMP280;66758;52.078;5.070;2023-03-01T12:56:10;102902.44;;;7.06
77599;BMP280;66758;52.078;5.070;2023-03-01T13:04:13;102885.75;;;7.22
77599;BMP280;66758;52.078;5.070;2023-03-01T13:13:12;102878.63;;;7.37
77599;BMP280;66758;52.078;5.070;2023-03-01T13:15:38;102869.56;;;7.51
77599;BMP280;66758;52.078;5.070;2023-03-01T13:26:15;102854.34;;;7.35
77599;BMP280;66758;52.078;5.070;2023-03-01T13:33:59;102845.72;;;7.72
77599;BMP280;66758;52.078;5.070;2023-03-01T13:39:39;102834.59;;;7.64
77599;BMP280;66758;52.078;5.070;2023-03-01T13:42:32;102828.19;;;7.83
77599;BMP280;66758;52.078;5.070;2023-03-01T13:44:59;102819.34;;;8.02
77599;BMP280;66758;52.078;5.070;2023-03-01T13:47:26;102808.69;;;8.00
77599;BMP280;66758;52.078;5.070;2023-03-01T13:50:01;102815.78;;;7.62
77599;BMP280;66758;52.078;5.070;2023-03-01T13:54:58;102813.81;;;7.73
77599;BMP280;66758;52.078;5.070;2023-03-01T13:57:30;102804.94;;;7.47
77599;BMP280;66758;52.078;5.070;2023-03-01T13:59:56;102799.75;;;7.50
77599;BMP280;66758;52.078;5.070;2023-03-01T14:02:22;102794.31;;;7.45
77599;BMP280;66758;52.078;5.070;2023-03-01T14:04:58;102792.16;;;7.86
77599;BMP280;66758;52.078;5.070;2023-03-01T14:07:25;102793.88;;;7.77
77599;BMP280;66758;52.078;5.070;2023-03-01T14:10:03;102787.25;;;7.83
77599;BMP280;66758;52.078;5.070;2023-03-01T14:15:39;102765.38;;;8.22
77599;BMP280;66758;52.078;5.070;2023-03-01T14:18:15;102781.63;;;7.70
77599;BMP280;66758;52.078;5.070;2023-03-01T14:20:44;102776.31;;;7.88
77599;BMP280;66758;52.078;5.070;2023-03-01T14:23:23;102758.81;;;7.89
77599;BMP280;66758;52.078;5.070;2023-03-01T14:25:52;102755.88;;;8.15
77599;BMP280;66758;52.078;5.070;2023-03-01T14:28:19;102770.25;;;7.97
77599;BMP280;66758;52.078;5.070;2023-03-01T14:30:48;102741.56;;;8.28
77599;BMP280;66758;52.078;5.070;2023-03-01T14:33:33;102749.25;;;7.92
77599;BMP280;66758;52.078;5.070;2023-03-01T14:36:07;102749.88;;;7.84
77599;BMP280;66758;52.078;5.070;2023-03-01T14:38:36;102730.50;;;7.85
77599;BMP280;66758;52.078;5.070;2023-03-01T14:43:33;102737.06;;;7.79
77599;BMP280;66758;52.078;5.070;2023-03-01T14:45:59;102722.56;;;8.18
77599;BMP280;66758;52.078;5.070;2023-03-01T14:48:27;102728.81;;;7.89
77599;BMP280;66758;52.078;5.070;2023-03-01T14:50:54;102740.06;;;8.12
77599;BMP280;66758;52.078;5.070;2023-03-01T14:53:23;102755.00;;;7.90
77599;BMP280;66758;52.078;5.070;2023-03-01T14:55:55;102747.50;;;8.06
77599;BMP280;66758;52.078;5.070;2023-03-01T14:58:24;102743.81;;;8.21
77599;BMP280;66758;52.078;5.070;2023-03-01T15:00:53;102749.50;;;8.24
77599;BMP280;66758;52.078;5.070;2023-03-01T15:03:27;102739.25;;;8.11
77599;BMP280;66758;52.078;5.070;2023-03-01T15:05:53;102726.56;;;7.97
77599;BMP280;66758;52.078;5.070;2023-03-01T15:08:22;102732.88;;;8.21
77599;BMP280;66758;52.078;5.070;2023-03-01T15:13:30;102715.78;;;10.49
77599;BMP280;66758;52.078;5.070;2023-03-01T15:16:03;102720.41;;;10.76
77599;BMP280;66758;52.078;5.070;2023-03-01T15:18:29;102723.38;;;9.65
77599;BMP280;66758;52.078;5.070;2023-03-01T15:21:05;102722.06;;;10.08
77599;BMP280;66758;52.078;5.070;2023-03-01T15:23:31;102713.06;;;10.98
77599;BMP280;66758;52.078;5.070;2023-03-01T15:25:57;102713.28;;;12.39
77599;BMP280;66758;52.078;5.070;2023-03-01T15:28:27;102717.69;;;11.12
77599;BMP280;66758;52.078;5.070;2023-03-01T15:31:03;102710.72;;;12.12
77599;BMP280;66758;52.078;5.070;2023-03-01T15:33:37;102711.00;;;9.67
77599;BMP280;66758;52.078;5.070;2023-03-01T15:36:40;102701.81;;;11.75
77599;BMP280;66758;52.078;5.070;2023-03-01T15:41:59;102694.50;;;11.40
77599;BMP280;66758;52.078;5.070;2023-03-01T15:44:27;102709.00;;;10.33
77599;BMP280;66758;52.078;5.070;2023-03-01T15:46:54;102697.19;;;12.15
77599;BMP280;66758;52.078;5.070;2023-03-01T15:51:45;102703.69;;;11.58
77599;BMP280;66758;52.078;5.070;2023-03-01T15:54:22;102713.75;;;11.71
77599;BMP280;66758;52.078;5.070;2023-03-01T15:56:49;102707.69;;;8.77
77599;BMP280;66758;52.078;5.070;2023-03-01T15:59:16;102710.00;;;9.63
77599;BMP280;66758;52.078;5.070;2023-03-01T16:01:43;102707.91;;;8.09
77599;BMP280;66758;52.078;5.070;2023-03-01T16:04:13;102706.28;;;7.74
77599;BMP280;66758;52.078;5.070;2023-03-01T16:06:46;102702.84;;;7.63
77599;BMP280;66758;52.078;5.070;2023-03-01T16:09:12;102697.41;;;7.58
77599;BMP280;66758;52.078;5.070;2023-03-01T16:11:38;102685.19;;;7.84